createdAt,value
2022-12-02T00:00:35.621Z,88.35
2022-12-02T00:01:38.474Z,88.74
2022-12-02T00:03:49.698Z,89.08
2022-12-02T00:05:26.212Z,88.86
2022-12-02T00:06:31.897Z,88.78
2022-12-02T00:07:34.892Z,88.92
2022-12-02T00:08:38.202Z,88.25
2022-12-02T00:09:43.769Z,88.19
2022-12-02T00:10:46.984Z,88.07
2022-12-02T00:11:50.571Z,88.26
2022-12-02T00:12:53.498Z,87.91
2022-12-02T00:13:59.255Z,87.31
2022-12-02T00:15:22.869Z,87.58
2022-12-02T00:16:27.219Z,88.00
2022-12-02T00:17:30.135Z,88.15
2022-12-02T00:18:33.020Z,88.83
2022-12-02T00:19:35.835Z,88.67
2022-12-02T00:20:39.698Z,88.46
2022-12-02T00:21:42.746Z,88.18
2022-12-02T00:22:45.633Z,88.44
2022-12-02T00:23:48.973Z,88.75
2022-12-02T00:24:52.004Z,88.28
2022-12-02T00:25:55.294Z,88.72
2022-12-02T00:26:58.217Z,88.42
2022-12-02T00:28:02.024Z,88.10
2022-12-02T00:29:05.100Z,87.89
2022-12-02T00:30:08.458Z,88.00
2022-12-02T00:31:11.807Z,88.24
2022-12-02T00:32:14.777Z,88.77
2022-12-02T00:33:18.575Z,88.45
2022-12-02T00:34:21.376Z,88.19
2022-12-02T00:35:25.218Z,88.09
2022-12-02T00:36:29.250Z,88.63
2022-12-02T00:37:32.177Z,88.76
2022-12-02T00:38:35.061Z,88.79
2022-12-02T00:39:37.896Z,88.15
2022-12-02T00:40:41.056Z,88.01
2022-12-02T00:41:43.891Z,87.95
2022-12-02T00:42:47.137Z,87.71
2022-12-02T00:44:08.780Z,88.04
2022-12-02T00:45:31.948Z,87.94
2022-12-02T00:46:35.550Z,86.75
2022-12-02T00:47:38.364Z,87.08
2022-12-02T00:48:41.331Z,87.58
2022-12-02T00:49:44.297Z,87.25
2022-12-02T00:50:47.317Z,87.03
2022-12-02T00:51:50.419Z,86.82
2022-12-02T00:52:53.504Z,86.56
2022-12-02T00:53:56.445Z,86.92
2022-12-02T00:55:02.730Z,86.39
2022-12-02T00:56:06.080Z,86.02
2022-12-02T00:57:09.007Z,85.67
2022-12-02T00:58:11.774Z,85.79
2022-12-02T00:59:14.550Z,85.48
2022-12-02T01:00:18.119Z,85.09
2022-12-02T01:01:27.618Z,85.87
2022-12-02T01:02:30.778Z,85.99
2022-12-02T01:03:33.911Z,85.81
2022-12-02T01:04:37.123Z,85.94
2022-12-02T01:05:40.377Z,85.91
2022-12-02T01:06:43.498Z,86.33
2022-12-02T01:07:46.515Z,86.11
2022-12-02T01:08:50.677Z,85.81
2022-12-02T01:09:53.574Z,86.35
2022-12-02T01:10:57.740Z,85.79
2022-12-02T01:12:00.698Z,85.92
2022-12-02T01:13:04.015Z,85.96
2022-12-02T01:14:06.971Z,85.67
2022-12-02T01:15:10.654Z,85.52
2022-12-02T01:16:13.639Z,85.53
2022-12-02T01:17:16.544Z,85.56
2022-12-02T01:18:19.819Z,85.22
2022-12-02T01:19:22.855Z,85.41
2022-12-02T01:20:25.697Z,85.53
2022-12-02T01:21:29.214Z,86.05
2022-12-02T01:22:32.197Z,85.91
2022-12-02T01:23:35.339Z,86.06
2022-12-02T01:24:38.142Z,86.20
2022-12-02T01:25:41.174Z,86.30
2022-12-02T01:26:44.096Z,85.95
2022-12-02T01:27:46.984Z,85.98
2022-12-02T01:28:50.026Z,86.20
2022-12-02T01:29:52.817Z,85.83
2022-12-02T01:30:55.793Z,86.01
2022-12-02T01:31:58.749Z,86.42
2022-12-02T01:33:01.823Z,86.38
2022-12-02T01:34:04.986Z,86.08
2022-12-02T01:35:08.092Z,86.32
2022-12-02T01:36:10.894Z,86.48
2022-12-02T01:37:13.746Z,86.32
2022-12-02T01:38:16.623Z,86.10
2022-12-02T01:39:19.465Z,85.94
2022-12-02T01:40:22.906Z,86.42
2022-12-02T01:41:26.137Z,86.69
2022-12-02T01:42:29.110Z,86.59
2022-12-02T01:43:32.510Z,87.53
2022-12-02T01:44:36.701Z,87.62
2022-12-02T01:45:39.923Z,87.90
2022-12-02T01:46:43.139Z,88.03
2022-12-02T01:47:46.651Z,87.62
2022-12-02T01:48:50.256Z,87.96
2022-12-02T01:49:54.740Z,87.82
2022-12-02T01:50:58.304Z,87.91
2022-12-02T01:52:01.394Z,88.35
2022-12-02T01:53:05.344Z,88.06
2022-12-02T01:54:08.174Z,87.57
2022-12-02T01:55:19.658Z,87.51
2022-12-02T01:56:22.865Z,88.26
2022-12-02T01:57:31.257Z,89.98
2022-12-02T01:58:34.428Z,89.59
2022-12-02T01:59:37.474Z,89.76
2022-12-02T02:00:41.658Z,88.47
2022-12-02T02:01:44.917Z,88.79
2022-12-02T02:02:48.230Z,88.17
2022-12-02T02:03:51.102Z,87.66
2022-12-02T02:05:03.394Z,88.14
2022-12-02T02:06:06.588Z,88.01
2022-12-02T02:07:09.500Z,88.88
2022-12-02T02:08:13.100Z,89.44
2022-12-02T02:09:16.297Z,90.00
2022-12-02T02:10:21.066Z,89.34
2022-12-02T02:11:25.701Z,88.35
2022-12-02T02:12:28.981Z,88.22
2022-12-02T02:13:31.978Z,88.67
2022-12-02T02:14:34.912Z,88.08
2022-12-02T02:15:43.500Z,88.15
2022-12-02T02:16:46.896Z,88.04
2022-12-02T02:17:50.065Z,87.94
2022-12-02T02:18:53.338Z,87.77
2022-12-02T02:19:56.895Z,87.05
2022-12-02T02:21:00.580Z,86.68
2022-12-02T02:22:10.258Z,87.09
2022-12-02T02:23:21.627Z,87.99
2022-12-02T02:24:24.904Z,87.78
2022-12-02T02:25:27.815Z,87.11
2022-12-02T02:26:30.859Z,86.51
2022-12-02T02:27:33.842Z,86.75
2022-12-02T02:28:37.099Z,87.07
2022-12-02T02:29:40.143Z,87.01
2022-12-02T02:30:43.509Z,86.99
2022-12-02T02:31:46.487Z,87.25
2022-12-02T02:32:51.000Z,86.77
2022-12-02T02:33:54.061Z,86.39
2022-12-02T02:34:56.899Z,86.27
2022-12-02T02:36:02.729Z,86.42
2022-12-02T02:37:06.119Z,87.69
2022-12-02T02:38:11.746Z,88.52
2022-12-02T02:39:14.647Z,88.41
2022-12-02T02:40:20.711Z,88.61
2022-12-02T02:41:23.750Z,88.95
2022-12-02T02:42:26.975Z,88.83
2022-12-02T02:43:32.803Z,89.37
2022-12-02T02:44:35.705Z,89.54
2022-12-02T02:45:40.681Z,89.43
2022-12-02T02:46:45.434Z,89.18
2022-12-02T02:47:52.743Z,89.59
2022-12-02T02:48:56.065Z,88.62
2022-12-02T02:49:59.095Z,88.91
2022-12-02T02:51:02.632Z,88.57
2022-12-02T02:52:05.418Z,88.80
2022-12-02T02:53:08.598Z,88.64
2022-12-02T02:54:11.467Z,88.32
2022-12-02T02:55:21.827Z,87.91
2022-12-02T02:56:30.922Z,87.61
2022-12-02T02:57:37.136Z,87.83
2022-12-02T02:58:40.363Z,87.48
2022-12-02T02:59:44.229Z,87.53
2022-12-02T03:00:58.711Z,87.02
2022-12-02T03:02:08.586Z,86.48
2022-12-02T03:03:14.300Z,86.68
2022-12-02T03:04:22.296Z,86.11
2022-12-02T03:05:25.252Z,86.27
2022-12-02T03:06:30.625Z,85.89
2022-12-02T03:07:34.843Z,86.33
2022-12-02T03:08:41.437Z,86.51
2022-12-02T03:09:44.968Z,86.97
2022-12-02T03:10:48.412Z,87.21
2022-12-02T03:11:54.161Z,87.08
2022-12-02T03:12:57.567Z,87.78
2022-12-02T03:14:01.962Z,88.48
2022-12-02T03:15:06.341Z,87.97
2022-12-02T03:16:12.811Z,88.50
2022-12-02T03:17:16.527Z,88.29
2022-12-02T03:18:20.461Z,88.48
2022-12-02T03:19:24.277Z,88.09
2022-12-02T03:20:27.837Z,87.97
2022-12-02T03:21:33.327Z,87.89
2022-12-02T03:22:36.229Z,87.71
2022-12-02T03:23:39.776Z,87.88
2022-12-02T03:24:43.095Z,88.63
2022-12-02T03:25:46.216Z,89.20
2022-12-02T03:26:49.703Z,89.08
2022-12-02T03:27:52.985Z,88.26
2022-12-02T03:28:57.329Z,87.85
2022-12-02T03:30:00.689Z,86.93
2022-12-02T03:31:04.856Z,87.46
2022-12-02T03:32:11.018Z,88.56
2022-12-02T03:33:13.974Z,88.83
2022-12-02T03:34:17.217Z,89.22
2022-12-02T03:35:20.313Z,89.62
2022-12-02T03:36:24.017Z,89.56
2022-12-02T03:37:27.184Z,87.74
2022-12-02T03:38:33.245Z,86.80
2022-12-02T03:39:36.731Z,87.31
2022-12-02T03:40:39.411Z,86.66
2022-12-02T03:41:42.142Z,87.24
2022-12-02T03:42:44.799Z,87.99
2022-12-02T03:43:47.728Z,88.50
2022-12-02T03:44:51.439Z,88.57
2022-12-02T03:45:54.393Z,89.02
2022-12-02T03:46:57.319Z,89.60
2022-12-02T03:48:00.721Z,90.72
2022-12-02T03:49:04.288Z,90.51
2022-12-02T03:50:08.167Z,90.57
2022-12-02T03:51:13.692Z,90.25
2022-12-02T03:52:16.831Z,90.23
2022-12-02T03:53:21.874Z,90.72
2022-12-02T03:54:24.823Z,90.50
2022-12-02T03:55:27.656Z,90.79
2022-12-02T03:56:36.057Z,90.13
2022-12-02T03:57:40.971Z,90.32
2022-12-02T03:58:50.183Z,89.21
2022-12-02T03:59:53.104Z,88.53
2022-12-02T04:00:55.820Z,89.05
2022-12-02T04:01:58.522Z,88.54
2022-12-02T04:03:01.342Z,89.19
2022-12-02T04:04:04.170Z,89.51
2022-12-02T04:05:07.509Z,90.03
2022-12-02T04:06:11.254Z,91.16
2022-12-02T04:07:13.959Z,91.17
2022-12-02T04:08:16.625Z,91.26
2022-12-02T04:09:19.434Z,90.88
2022-12-02T04:10:22.291Z,90.40
2022-12-02T04:11:25.087Z,91.04
2022-12-02T04:12:27.765Z,91.63
2022-12-02T04:13:31.059Z,91.12
2022-12-02T04:14:33.780Z,91.09
2022-12-02T04:15:36.657Z,90.44
2022-12-02T04:16:39.483Z,90.82
2022-12-02T04:17:42.443Z,90.95
2022-12-02T04:18:45.184Z,90.91
2022-12-02T04:19:49.253Z,89.97
2022-12-02T04:20:52.334Z,89.74
2022-12-02T04:21:54.968Z,90.07
2022-12-02T04:22:57.659Z,90.07
2022-12-02T04:24:00.371Z,89.95
2022-12-02T04:25:05.246Z,89.66
2022-12-02T04:26:08.149Z,90.26
2022-12-02T04:27:16.294Z,90.27
2022-12-02T04:28:19.093Z,91.07
2022-12-02T04:29:22.055Z,89.93
2022-12-02T04:30:24.935Z,89.60
2022-12-02T04:31:27.669Z,89.55
2022-12-02T04:32:30.334Z,89.25
2022-12-02T04:33:33.371Z,88.97
2022-12-02T04:34:35.984Z,88.78
2022-12-02T04:35:38.574Z,88.69
2022-12-02T04:36:41.608Z,89.18
2022-12-02T04:37:44.389Z,88.65
2022-12-02T04:38:47.176Z,88.44
2022-12-02T04:39:49.892Z,88.74
2022-12-02T04:40:52.659Z,88.84
2022-12-02T04:41:55.292Z,88.67
2022-12-02T04:42:58.093Z,88.55
2022-12-02T04:44:00.731Z,88.42
2022-12-02T04:45:04.256Z,88.77
2022-12-02T04:46:06.996Z,88.24
2022-12-02T04:47:09.852Z,89.35
2022-12-02T04:48:12.573Z,88.19
2022-12-02T04:49:15.464Z,88.01
2022-12-02T04:50:18.612Z,87.24
2022-12-02T04:51:21.311Z,87.42
2022-12-02T04:52:24.376Z,89.15
2022-12-02T04:53:27.099Z,89.93
2022-12-02T04:54:29.787Z,89.03
2022-12-02T04:55:32.817Z,88.29
2022-12-02T04:56:35.528Z,87.91
2022-12-02T04:57:38.244Z,87.59
2022-12-02T04:58:40.849Z,87.95
2022-12-02T04:59:43.864Z,88.40
2022-12-02T05:00:46.457Z,87.87
2022-12-02T05:01:49.193Z,87.15
2022-12-02T05:02:51.811Z,87.16
2022-12-02T05:03:54.624Z,88.21
2022-12-02T05:04:57.715Z,88.80
2022-12-02T05:06:00.733Z,87.81
2022-12-02T05:07:03.652Z,88.40
2022-12-02T05:08:06.457Z,88.35
2022-12-02T05:09:09.314Z,88.62
2022-12-02T05:10:12.027Z,88.40
2022-12-02T05:11:14.949Z,88.67
2022-12-02T05:12:17.734Z,88.39
2022-12-02T05:13:20.687Z,87.55
2022-12-02T05:14:23.542Z,86.84
2022-12-02T05:15:26.267Z,87.25
2022-12-02T05:16:29.157Z,87.34
2022-12-02T05:17:32.164Z,87.17
2022-12-02T05:18:34.832Z,87.34
2022-12-02T05:19:37.670Z,86.87
2022-12-02T05:20:40.402Z,86.75
2022-12-02T05:21:42.982Z,86.83
2022-12-02T05:22:45.837Z,86.59
2022-12-02T05:23:48.393Z,86.11
2022-12-02T05:24:51.266Z,86.62
2022-12-02T05:25:54.303Z,87.25
2022-12-02T05:26:57.273Z,86.54
2022-12-02T05:27:59.906Z,87.10
2022-12-02T05:29:02.963Z,87.67
2022-12-02T05:30:07.665Z,86.67
2022-12-02T05:31:10.756Z,86.82
2022-12-02T05:32:13.503Z,87.18
2022-12-02T05:33:16.149Z,86.65
2022-12-02T05:34:19.172Z,87.67
2022-12-02T05:35:21.940Z,87.28
2022-12-02T05:36:24.628Z,86.87
2022-12-02T05:37:27.257Z,86.29
2022-12-02T05:38:30.081Z,87.00
2022-12-02T05:39:32.798Z,86.84
2022-12-02T05:40:35.934Z,86.54
2022-12-02T05:41:38.824Z,86.98
2022-12-02T05:42:42.049Z,87.04
2022-12-02T05:43:44.823Z,87.02
2022-12-02T05:44:47.507Z,86.84
2022-12-02T05:45:50.966Z,87.14
2022-12-02T05:46:59.160Z,86.69
2022-12-02T05:48:02.168Z,86.30
2022-12-02T05:49:14.316Z,86.87
2022-12-02T05:50:17.131Z,86.49
2022-12-02T05:51:21.705Z,85.84
2022-12-02T05:52:27.045Z,85.60
2022-12-02T05:53:29.734Z,85.13
2022-12-02T05:54:32.506Z,85.33
2022-12-02T05:55:36.548Z,86.11
2022-12-02T05:56:39.792Z,86.03
2022-12-02T05:57:43.033Z,86.08
2022-12-02T05:58:45.801Z,86.58
2022-12-02T05:59:48.733Z,87.04
2022-12-02T06:00:59.697Z,86.93
2022-12-02T06:02:02.615Z,87.15
2022-12-02T06:03:09.596Z,87.47
2022-12-02T06:04:17.143Z,87.14
2022-12-02T06:05:28.806Z,87.04
2022-12-02T06:06:35.233Z,86.86
2022-12-02T06:07:38.032Z,87.68
2022-12-02T06:08:40.952Z,86.89
2022-12-02T06:09:44.351Z,87.29
2022-12-02T06:10:54.211Z,86.99
2022-12-02T06:11:57.485Z,86.72
2022-12-02T06:13:05.210Z,87.27
2022-12-02T06:14:18.246Z,86.81
2022-12-02T06:15:21.289Z,87.02
2022-12-02T06:16:27.810Z,87.26
2022-12-02T06:17:30.467Z,87.19
2022-12-02T06:18:35.809Z,86.67
2022-12-02T06:19:58.997Z,86.98
2022-12-02T06:21:04.681Z,86.42
2022-12-02T06:22:19.945Z,86.61
2022-12-02T06:23:23.085Z,86.45
2022-12-02T06:24:32.902Z,86.35
2022-12-02T06:25:36.902Z,85.68
2022-12-02T06:26:39.896Z,86.49
2022-12-02T06:27:42.686Z,86.80
2022-12-02T06:28:48.629Z,87.35
2022-12-02T06:29:56.904Z,86.97
2022-12-02T06:31:05.703Z,86.72
2022-12-02T06:32:17.490Z,85.68
2022-12-02T06:33:28.244Z,85.85
2022-12-02T06:34:40.903Z,85.54
2022-12-02T06:35:43.568Z,84.68
2022-12-02T06:36:46.360Z,84.48
2022-12-02T06:37:51.262Z,84.61
2022-12-02T06:39:13.495Z,85.11
2022-12-02T06:40:30.465Z,84.98
2022-12-02T06:41:36.853Z,84.90
2022-12-02T06:42:39.735Z,84.37
2022-12-02T06:43:42.415Z,84.50
2022-12-02T06:45:04.199Z,84.43
2022-12-02T06:46:20.337Z,84.32
2022-12-02T06:47:32.572Z,85.27
2022-12-02T06:48:40.676Z,85.47
2022-12-02T06:49:43.362Z,85.49
2022-12-02T06:50:48.548Z,85.79
2022-12-02T06:52:02.223Z,85.92
2022-12-02T06:53:20.325Z,86.50
2022-12-02T06:54:28.574Z,85.67
2022-12-02T06:55:34.839Z,86.46
2022-12-02T06:56:37.719Z,85.74
2022-12-02T06:57:40.553Z,84.95
2022-12-02T06:59:05.123Z,84.53
2022-12-02T07:00:10.736Z,84.66
2022-12-02T07:01:26.203Z,84.52
2022-12-02T07:02:32.384Z,84.67
2022-12-02T07:03:43.220Z,84.86
2022-12-02T07:04:50.128Z,85.46
2022-12-02T07:06:09.709Z,85.51
2022-12-02T07:07:22.581Z,84.66
2022-12-02T07:08:26.562Z,84.26
2022-12-02T07:09:32.460Z,84.08
2022-12-02T07:10:36.063Z,83.23
2022-12-02T07:11:50.291Z,82.91
2022-12-02T07:12:53.817Z,84.23
2022-12-02T07:13:56.606Z,83.51
2022-12-02T07:15:16.524Z,83.14
2022-12-02T07:16:33.898Z,84.45
2022-12-02T07:17:40.030Z,84.54
2022-12-02T07:18:42.813Z,83.79
2022-12-02T07:19:47.750Z,84.06
2022-12-02T07:20:50.478Z,83.80
2022-12-02T07:21:54.030Z,83.38
2022-12-02T07:23:01.212Z,83.15
2022-12-02T07:24:04.088Z,83.41
2022-12-02T07:25:28.489Z,83.52
2022-12-02T07:26:31.158Z,84.36
2022-12-02T07:27:37.704Z,83.69
2022-12-02T07:28:42.729Z,83.14
2022-12-02T07:29:45.401Z,83.35
2022-12-02T07:31:00.102Z,83.78
2022-12-02T07:32:02.860Z,83.58
2022-12-02T07:33:05.491Z,82.41
2022-12-02T07:34:08.159Z,81.84
2022-12-02T07:35:11.246Z,80.74
2022-12-02T07:36:14.156Z,82.10
2022-12-02T07:37:17.010Z,83.08
2022-12-02T07:38:36.490Z,82.19
2022-12-02T07:39:42.505Z,81.67
2022-12-02T07:40:45.426Z,82.71
2022-12-02T07:41:48.042Z,81.43
2022-12-02T07:42:50.843Z,81.76
2022-12-02T07:43:55.248Z,81.17
2022-12-02T07:44:58.065Z,82.15
2022-12-02T07:46:01.097Z,82.41
2022-12-02T07:47:03.932Z,82.40
2022-12-02T07:48:07.169Z,81.41
2022-12-02T07:49:09.804Z,81.16
2022-12-02T07:50:16.195Z,80.38
2022-12-02T07:51:18.878Z,81.22
2022-12-02T07:52:21.486Z,81.69
2022-12-02T07:53:24.195Z,80.33
2022-12-02T07:54:27.048Z,80.76
2022-12-02T07:55:30.120Z,81.12
2022-12-02T07:56:33.160Z,81.00
2022-12-02T07:57:36.029Z,81.68
2022-12-02T07:59:10.062Z,81.72
2022-12-02T08:00:03.628Z,81.37
2022-12-02T08:01:06.377Z,81.14
2022-12-02T08:02:09.166Z,80.37
2022-12-02T08:03:12.119Z,79.75
2022-12-02T08:04:16.096Z,78.84
2022-12-02T08:05:19.127Z,78.43
2022-12-02T08:06:21.947Z,78.69
2022-12-02T08:07:24.621Z,79.16
2022-12-02T08:08:27.295Z,79.34
2022-12-02T08:09:30.275Z,79.13
2022-12-02T08:10:33.068Z,79.50
2022-12-02T08:11:35.803Z,79.89
2022-12-02T08:12:39.426Z,80.43
2022-12-02T08:13:42.110Z,80.85
2022-12-02T08:14:47.663Z,79.93
2022-12-02T08:15:54.072Z,78.90
2022-12-02T08:16:57.233Z,78.26
2022-12-02T08:17:59.906Z,78.50
2022-12-02T08:19:02.622Z,79.06
2022-12-02T08:20:08.653Z,79.35
2022-12-02T08:21:11.204Z,79.34
2022-12-02T08:22:13.854Z,79.05
2022-12-02T08:23:16.567Z,77.84
2022-12-02T08:24:19.138Z,77.97
2022-12-02T08:25:21.762Z,78.39
2022-12-02T08:26:24.688Z,76.70
2022-12-02T08:27:27.703Z,77.28
2022-12-02T08:28:30.473Z,76.87
2022-12-02T08:29:34.818Z,76.70
2022-12-02T08:30:37.508Z,77.85
2022-12-02T08:31:40.165Z,78.02
2022-12-02T08:32:43.121Z,77.75
2022-12-02T08:33:45.748Z,77.80
2022-12-02T08:34:48.877Z,77.35
2022-12-02T08:35:51.648Z,77.97
2022-12-02T08:36:54.171Z,77.99
2022-12-02T08:37:57.052Z,77.29
2022-12-02T08:38:59.874Z,77.34
2022-12-02T08:40:02.576Z,76.46
2022-12-02T08:41:08.186Z,77.73
2022-12-02T08:42:15.204Z,78.00
2022-12-02T08:43:17.767Z,79.21
2022-12-02T08:44:20.631Z,77.62
2022-12-02T08:45:23.558Z,76.37
2022-12-02T08:46:28.288Z,77.03
2022-12-02T08:47:31.398Z,77.13
2022-12-02T08:48:34.397Z,78.03
2022-12-02T08:49:37.019Z,77.76
2022-12-02T08:50:39.984Z,76.98
2022-12-02T08:51:43.202Z,78.15
2022-12-02T08:52:45.980Z,78.20
2022-12-02T08:53:49.079Z,76.20
2022-12-02T08:54:52.066Z,76.03
2022-12-02T08:55:54.997Z,75.32
2022-12-02T08:57:00.667Z,75.59
2022-12-02T08:58:03.449Z,75.34
2022-12-02T08:59:06.120Z,75.01
2022-12-02T09:00:10.061Z,75.48
2022-12-02T09:01:12.981Z,75.64
2022-12-02T09:02:15.678Z,75.86
2022-12-02T09:03:18.572Z,75.97
2022-12-02T09:04:21.352Z,75.65
2022-12-02T09:05:24.144Z,76.05
2022-12-02T09:06:27.828Z,76.05
2022-12-02T09:07:32.822Z,75.35
2022-12-02T09:08:35.920Z,76.18
2022-12-02T09:09:38.597Z,75.90
2022-12-02T09:10:41.334Z,75.76
2022-12-02T09:11:44.155Z,75.86
2022-12-02T09:12:47.158Z,76.20
2022-12-02T09:13:49.827Z,76.99
2022-12-02T09:14:53.023Z,77.08
2022-12-02T09:15:55.790Z,78.82
2022-12-02T09:16:58.473Z,78.92
2022-12-02T09:18:01.211Z,78.49
2022-12-02T09:19:04.259Z,79.12
2022-12-02T09:20:07.738Z,79.04
2022-12-02T09:21:10.558Z,78.48
2022-12-02T09:22:15.940Z,78.42
2022-12-02T09:23:18.736Z,78.50
2022-12-02T09:24:21.318Z,78.49
2022-12-02T09:25:24.289Z,78.19
2022-12-02T09:26:26.849Z,79.12
2022-12-02T09:27:30.555Z,79.50
2022-12-02T09:28:33.400Z,79.16
2022-12-02T09:29:36.136Z,79.32
2022-12-02T09:30:38.837Z,78.53
2022-12-02T09:31:41.429Z,79.09
2022-12-02T09:32:44.057Z,79.65
2022-12-02T09:33:46.888Z,79.44
2022-12-02T09:34:49.918Z,78.87
2022-12-02T09:35:53.086Z,79.59
2022-12-02T09:36:56.143Z,79.64
2022-12-02T09:37:58.999Z,78.78
2022-12-02T09:39:01.967Z,79.12
2022-12-02T09:40:06.597Z,79.08
2022-12-02T09:41:09.606Z,79.15
2022-12-02T09:42:12.607Z,78.75
2022-12-02T09:43:15.350Z,77.63
2022-12-02T09:44:18.047Z,76.50
2022-12-02T09:45:20.686Z,76.90
2022-12-02T09:46:25.131Z,77.85
2022-12-02T09:47:29.028Z,79.19
2022-12-02T09:48:32.566Z,77.66
2022-12-02T09:49:35.868Z,76.37
2022-12-02T09:50:40.062Z,77.26
2022-12-02T09:51:42.930Z,77.50
2022-12-02T09:52:46.551Z,77.22
2022-12-02T09:53:49.364Z,77.97
2022-12-02T09:54:53.564Z,76.35
2022-12-02T09:55:56.434Z,77.18
2022-12-02T09:56:59.623Z,77.01
2022-12-02T09:58:17.707Z,76.61
2022-12-02T09:59:20.688Z,77.14
2022-12-02T10:00:23.690Z,77.95
2022-12-02T10:01:27.371Z,78.53
2022-12-02T10:02:36.091Z,78.56
2022-12-02T10:03:39.456Z,77.49
2022-12-02T10:04:42.097Z,77.12
2022-12-02T10:05:44.836Z,77.39
2022-12-02T10:06:48.033Z,78.06
2022-12-02T10:07:52.750Z,78.85
2022-12-02T10:08:57.847Z,78.94
2022-12-02T10:10:00.681Z,78.37
2022-12-02T10:11:05.114Z,78.99
2022-12-02T10:12:11.352Z,78.41
2022-12-02T10:13:16.618Z,76.20
2022-12-02T10:14:19.466Z,76.32
2022-12-02T10:15:28.204Z,76.68
2022-12-02T10:16:31.354Z,77.65
2022-12-02T10:17:34.159Z,79.36
2022-12-02T10:18:36.970Z,79.60
2022-12-02T10:19:39.656Z,79.35
2022-12-02T10:20:42.548Z,78.24
2022-12-02T10:21:45.173Z,79.31
2022-12-02T10:23:09.566Z,79.03
2022-12-02T10:24:13.418Z,79.19
2022-12-02T10:25:31.084Z,79.82
2022-12-02T10:26:53.170Z,79.71
2022-12-02T10:27:56.179Z,78.75
2022-12-02T10:29:05.637Z,77.78
2022-12-02T10:30:16.559Z,78.94
2022-12-02T10:31:24.741Z,81.44
2022-12-02T10:32:28.191Z,81.51
2022-12-02T10:33:33.574Z,81.74
2022-12-02T10:34:36.877Z,81.49
2022-12-02T10:35:50.948Z,81.04
2022-12-02T10:36:54.695Z,81.18
2022-12-02T10:37:57.335Z,81.10
2022-12-02T10:39:24.468Z,82.22
2022-12-02T10:40:27.137Z,82.17
2022-12-02T10:41:30.258Z,81.83
2022-12-02T10:42:32.866Z,80.69
2022-12-02T10:43:35.582Z,80.71
2022-12-02T10:44:44.510Z,80.95
2022-12-02T10:45:59.333Z,80.28
2022-12-02T10:47:11.634Z,80.49
2022-12-02T10:48:17.748Z,82.34
2022-12-02T10:49:30.327Z,81.55
2022-12-02T10:50:33.110Z,83.33
2022-12-02T10:51:36.032Z,83.05
2022-12-02T10:52:46.186Z,80.80
2022-12-02T10:53:52.364Z,79.71
2022-12-02T10:54:57.863Z,80.01
2022-12-02T10:56:00.763Z,79.55
2022-12-02T10:57:04.909Z,80.63
2022-12-02T10:58:13.527Z,80.58
2022-12-02T10:59:16.936Z,80.72
2022-12-02T11:00:26.384Z,81.27
2022-12-02T11:01:29.594Z,81.30
2022-12-02T11:02:40.518Z,81.76
2022-12-02T11:03:43.713Z,81.28
2022-12-02T11:04:46.472Z,82.36
2022-12-02T11:05:49.494Z,83.46
2022-12-02T11:06:54.798Z,83.63
2022-12-02T11:08:04.717Z,83.63
2022-12-02T11:09:38.485Z,82.88
2022-12-02T11:10:41.324Z,82.01
2022-12-02T11:11:44.194Z,81.98
2022-12-02T11:12:49.638Z,81.20
2022-12-02T11:13:52.166Z,81.23
2022-12-02T11:14:55.841Z,81.46
2022-12-02T11:16:27.613Z,82.96
2022-12-02T11:17:51.312Z,82.08
2022-12-02T11:18:58.472Z,82.94
2022-12-02T11:20:30.671Z,82.03
2022-12-02T11:21:37.279Z,82.08
2022-12-02T11:22:50.173Z,80.96
2022-12-02T11:24:23.838Z,80.74
2022-12-02T11:25:44.952Z,80.66
2022-12-02T11:27:05.200Z,81.43
2022-12-02T11:29:06.756Z,81.33
2022-12-02T11:30:09.237Z,82.83
2022-12-02T11:31:12.430Z,83.60
2022-12-02T11:32:26.822Z,83.59
2022-12-02T11:33:53.285Z,82.89
2022-12-02T11:36:27.393Z,82.26
2022-12-02T11:37:37.167Z,82.62
2022-12-02T11:38:52.483Z,82.40
2022-12-02T11:40:27.086Z,81.85
2022-12-02T11:41:47.840Z,84.33
2022-12-02T11:42:52.904Z,83.21
2022-12-02T11:44:09.687Z,84.51
2022-12-02T11:45:18.083Z,83.46
2022-12-02T11:46:40.204Z,82.94
2022-12-02T11:47:45.256Z,82.73
2022-12-02T11:48:55.595Z,83.78
2022-12-02T11:50:16.607Z,84.76
2022-12-02T11:51:42.668Z,84.66
2022-12-02T11:52:58.478Z,85.30
2022-12-02T11:54:01.409Z,85.65
2022-12-02T11:55:11.093Z,85.83
2022-12-02T11:56:18.943Z,84.65
2022-12-02T11:57:41.532Z,85.26
2022-12-02T11:58:45.231Z,86.08
2022-12-02T11:59:48.991Z,86.05
2022-12-02T12:01:15.300Z,85.03
2022-12-02T12:02:20.962Z,83.44
2022-12-02T12:03:23.730Z,83.26
2022-12-02T12:04:30.072Z,83.62
2022-12-02T12:05:33.301Z,83.74
2022-12-02T12:06:36.154Z,83.88
2022-12-02T12:07:47.959Z,83.63
2022-12-02T12:08:54.874Z,83.13
2022-12-02T12:09:59.501Z,83.70
2022-12-02T12:11:21.163Z,84.85
2022-12-02T12:12:23.807Z,85.64
2022-12-02T12:13:28.053Z,86.14
2022-12-02T12:14:32.518Z,85.11
2022-12-02T12:16:02.233Z,83.81
2022-12-02T12:17:30.375Z,85.22
2022-12-02T12:18:47.991Z,85.52
2022-12-02T12:19:50.719Z,84.13
2022-12-02T12:20:53.576Z,83.27
2022-12-02T12:21:57.765Z,83.37
2022-12-02T12:23:33.339Z,83.72
2022-12-02T12:24:36.141Z,85.68
2022-12-02T12:25:44.709Z,85.09
2022-12-02T12:27:02.716Z,84.85
2022-12-02T12:28:22.768Z,84.26
2022-12-02T12:29:34.153Z,82.70
2022-12-02T12:30:36.857Z,85.10
2022-12-02T12:31:39.620Z,84.97
2022-12-02T12:32:42.434Z,86.50
2022-12-02T12:33:45.306Z,86.86
2022-12-02T12:34:48.171Z,86.76
2022-12-02T12:35:54.377Z,86.01
2022-12-02T12:36:57.543Z,86.47
2022-12-02T12:38:00.253Z,86.53
2022-12-02T12:39:05.255Z,87.07
2022-12-02T12:40:08.116Z,87.23
2022-12-02T12:41:10.776Z,87.42
2022-12-02T12:42:13.468Z,87.34
2022-12-02T12:43:16.208Z,87.62
2022-12-02T12:44:18.851Z,88.13
2022-12-02T12:45:21.524Z,87.24
2022-12-02T12:46:24.392Z,87.16
2022-12-02T12:47:27.292Z,87.79
2022-12-02T12:48:30.357Z,88.83
2022-12-02T12:49:34.752Z,88.62
2022-12-02T12:50:37.593Z,87.21
2022-12-02T12:51:40.293Z,86.07
2022-12-02T12:52:42.954Z,86.36
2022-12-02T12:53:45.498Z,86.93
2022-12-02T12:54:51.348Z,86.66
2022-12-02T12:55:59.355Z,86.28
2022-12-02T12:57:04.241Z,85.73
2022-12-02T12:58:06.782Z,86.88
2022-12-02T12:59:09.693Z,87.21
2022-12-02T13:00:13.113Z,87.09
2022-12-02T13:01:20.141Z,86.82
2022-12-02T13:02:26.264Z,86.76
2022-12-02T13:03:29.471Z,87.19
2022-12-02T13:04:32.296Z,86.60
2022-12-02T13:05:35.068Z,87.00
2022-12-02T13:06:42.391Z,86.88
2022-12-02T13:07:46.026Z,87.20
2022-12-02T13:08:48.709Z,88.27
2022-12-02T13:09:51.715Z,89.36
2022-12-02T13:10:54.875Z,88.06
2022-12-02T13:11:57.675Z,88.51
2022-12-02T13:13:00.543Z,89.35
2022-12-02T13:14:03.274Z,90.43
2022-12-02T13:15:06.486Z,89.79
2022-12-02T13:16:09.256Z,89.11
2022-12-02T13:17:12.069Z,89.04
2022-12-02T13:18:14.909Z,88.54
2022-12-02T13:19:17.730Z,88.74
2022-12-02T13:20:20.750Z,89.34
2022-12-02T13:21:24.349Z,89.65
2022-12-02T13:22:27.185Z,89.50
2022-12-02T13:23:29.823Z,88.93
2022-12-02T13:24:35.526Z,88.32
2022-12-02T13:25:40.766Z,87.76
2022-12-02T13:26:43.536Z,88.25
2022-12-02T13:27:46.369Z,88.08
2022-12-02T13:28:53.334Z,87.86
2022-12-02T13:29:56.459Z,88.51
2022-12-02T13:30:59.188Z,89.78
2022-12-02T13:32:02.057Z,89.66
2022-12-02T13:33:04.776Z,88.87
2022-12-02T13:34:07.580Z,88.68
2022-12-02T13:35:11.793Z,88.04
2022-12-02T13:36:14.517Z,89.41
2022-12-02T13:37:17.281Z,90.22
2022-12-02T13:38:21.932Z,90.88
2022-12-02T13:39:24.581Z,90.09
2022-12-02T13:40:27.298Z,90.62
2022-12-02T13:41:29.867Z,91.23
2022-12-02T13:42:32.668Z,91.84
2022-12-02T13:43:35.330Z,90.77
2022-12-02T13:44:38.052Z,90.78
2022-12-02T13:45:41.594Z,90.28
2022-12-02T13:46:44.354Z,91.67
2022-12-02T13:47:47.139Z,91.98
2022-12-02T13:48:50.294Z,91.05
2022-12-02T13:49:54.093Z,91.81
2022-12-02T13:50:57.493Z,91.58
2022-12-02T13:52:00.309Z,91.61
2022-12-02T13:53:03.430Z,90.97
2022-12-02T13:54:06.066Z,90.55
2022-12-02T13:55:09.145Z,91.10
2022-12-02T13:56:12.069Z,92.13
2022-12-02T13:57:15.097Z,92.99
2022-12-02T13:58:18.032Z,93.65
2022-12-02T13:59:20.726Z,94.69
2022-12-02T14:00:23.519Z,94.53
2022-12-02T14:01:26.210Z,93.49
2022-12-02T14:02:28.866Z,93.29
2022-12-02T14:03:31.559Z,93.89